Time;durP1;ratioP1;P1;durP2;ratioP2;P2;SDS_P1;SDS_P2;PMS_P1;PMS_P2;Temp;Humidity;BMP_temperature;BMP_pressure;BME280_temperature;BME280_humidity;BME280_pressure;Samples;Min_cycle;Max_cycle;Signal;HPM_P1;HPM_P2
2022/05/12 00:02:04;;;;;;;1.08;0.40;;;;;;;;;;5036390;28;20051;-65
2022/05/12 00:04:31;;;;;;;1.13;0.40;;;;;;;;;;5051595;28;20060;-65
2022/05/12 00:06:59;;;;;;;1.90;0.40;;;;;;;;;;5053139;28;20051;-66
2022/05/12 00:09:26;;;;;;;3.63;1.38;;;;;;;;;;5051403;28;20142;-65
2022/05/12 00:11:53;;;;;;;2.72;0.50;;;;;;;;;;5034742;28;20044;-65
2022/05/12 00:14:20;;;;;;;5.88;0.40;;;;;;;;;;5051966;28;20497;-64
2022/05/12 00:16:47;;;;;;;1.17;0.40;;;;;;;;;;5024233;28;20045;-65
2022/05/12 00:19:21;;;;;;;1.58;0.40;;;;;;;;;;5049541;28;20090;-64
2022/05/12 00:21:48;;;;;;;0.70;0.30;;;;;;;;;;5048284;28;20118;-65
2022/05/12 00:24:17;;;;;;;1.02;0.40;;;;;;;;;;5051769;28;20044;-65
2022/05/12 00:26:44;;;;;;;1.08;0.40;;;;;;;;;;5050378;28;20094;-65
2022/05/12 00:29:11;;;;;;;0.98;0.35;;;;;;;;;;5049926;28;20049;-64
2022/05/12 00:31:39;;;;;;;0.60;0.30;;;;;;;;;;5047342;28;20044;-65
2022/05/12 00:34:06;;;;;;;1.25;0.40;;;;;;;;;;5049383;28;20032;-65
2022/05/12 00:36:35;;;;;;;1.83;0.52;;;;;;;;;;5048949;28;20057;-65
2022/05/12 00:39:04;;;;;;;0.70;0.35;;;;;;;;;;5050172;28;20045;-63
2022/05/12 00:41:32;;;;;;;0.47;0.30;;;;;;;;;;5040386;28;20496;-65
2022/05/12 00:44:02;;;;;;;1.73;0.40;;;;;;;;;;5047998;28;20137;-64
2022/05/12 00:46:33;;;;;;;0.73;0.40;;;;;;;;;;5048113;28;20036;-65
2022/05/12 00:49:13;;;;;;;0.50;0.30;;;;;;;;;;5046712;28;20151;-65
2022/05/12 00:51:58;;;;;;;1.73;0.55;;;;;;;;;;5043785;28;20078;-65
2022/05/12 00:54:28;;;;;;;0.82;0.40;;;;;;;;;;5045214;28;20044;-66
2022/05/12 00:56:55;;;;;;;0.98;0.40;;;;;;;;;;5047167;28;20052;-66
2022/05/12 00:59:25;;;;;;;0.85;0.32;;;;;;;;;;5048231;28;20040;-66
2022/05/12 01:01:52;;;;;;;0.35;0.30;;;;;;;;;;5048513;28;20064;-67
2022/05/12 01:04:20;;;;;;;1.85;0.30;;;;;;;;;;5039822;28;20079;-65
2022/05/12 01:06:47;;;;;;;2.55;0.40;;;;;;;;;;5049938;28;20048;-66
2022/05/12 01:09:14;;;;;;;1.33;0.40;;;;;;;;;;5049548;28;20538;-66
2022/05/12 01:11:41;;;;;;;1.42;0.40;;;;;;;;;;5051777;28;20065;-66
2022/05/12 01:14:08;;;;;;;3.80;0.50;;;;;;;;;;5053419;28;20044;-66
2022/05/12 01:16:38;;;;;;;1.63;0.50;;;;;;;;;;5058485;28;20048;-66
2022/05/12 01:19:06;;;;;;;1.52;0.50;;;;;;;;;;5063713;28;20105;-66
2022/05/12 01:21:33;;;;;;;1.13;0.35;;;;;;;;;;5062099;28;20037;-66
2022/05/12 01:24:00;;;;;;;3.47;0.40;;;;;;;;;;5051324;28;20047;-65
2022/05/12 01:26:28;;;;;;;2.00;0.50;;;;;;;;;;5048189;28;20435;-66
2022/05/12 01:28:55;;;;;;;0.90;0.32;;;;;;;;;;5050167;28;20075;-67
2022/05/12 01:31:23;;;;;;;3.17;0.70;;;;;;;;;;5051402;28;20103;-66
2022/05/12 01:33:51;;;;;;;0.57;0.40;;;;;;;;;;5032676;28;20116;-65
2022/05/12 01:36:19;;;;;;;1.55;0.50;;;;;;;;;;5047125;28;20047;-65
2022/05/12 01:38:46;;;;;;;2.90;0.52;;;;;;;;;;5043746;28;20051;-65
2022/05/12 01:41:13;;;;;;;0.70;0.30;;;;;;;;;;5045801;28;20036;-64
2022/05/12 01:43:39;;;;;;;3.42;0.43;;;;;;;;;;5046052;28;20102;-67
2022/05/12 01:46:06;;;;;;;1.33;0.40;;;;;;;;;;5048883;28;20043;-67
2022/05/12 01:48:33;;;;;;;1.33;0.43;;;;;;;;;;5047320;28;20041;-64
2022/05/12 01:51:00;;;;;;;0.98;0.40;;;;;;;;;;5049207;28;20374;-64
2022/05/12 01:53:27;;;;;;;1.30;0.43;;;;;;;;;;5049908;28;20551;-64
2022/05/12 01:55:53;;;;;;;1.30;0.50;;;;;;;;;;5049751;28;20048;-65
2022/05/12 01:58:21;;;;;;;1.15;0.47;;;;;;;;;;5032484;28;20163;-65
2022/05/12 02:00:48;;;;;;;1.52;0.50;;;;;;;;;;5028385;28;20055;-65
2022/05/12 02:03:15;;;;;;;2.42;0.60;;;;;;;;;;5029139;28;20049;-65
2022/05/12 02:05:41;;;;;;;2.08;0.70;;;;;;;;;;5022550;28;20122;-65
2022/05/12 02:08:10;;;;;;;1.30;0.40;;;;;;;;;;5032042;28;20041;-65
2022/05/12 02:10:40;;;;;;;2.40;0.50;;;;;;;;;;5030813;28;20048;-64
2022/05/12 02:13:08;;;;;;;3.20;0.63;;;;;;;;;;5032137;28;20074;-65
2022/05/12 02:15:36;;;;;;;2.92;0.70;;;;;;;;;;5032977;28;20035;-65
2022/05/12 02:18:03;;;;;;;2.72;0.77;;;;;;;;;;5035555;28;20056;-65
2022/05/12 02:20:29;;;;;;;4.32;0.68;;;;;;;;;;5031552;28;20144;-62
2022/05/12 02:22:56;;;;;;;1.70;0.50;;;;;;;;;;5032898;28;20044;-64
2022/05/12 02:25:23;;;;;;;1.85;0.60;;;;;;;;;;5030772;28;20151;-64
2022/05/12 02:27:51;;;;;;;2.45;0.57;;;;;;;;;;5032645;28;20108;-64
2022/05/12 02:30:20;;;;;;;2.85;0.73;;;;;;;;;;5032471;28;20041;-64
2022/05/12 02:32:47;;;;;;;2.05;0.60;;;;;;;;;;5029448;28;20048;-64
2022/05/12 02:35:14;;;;;;;2.58;0.80;;;;;;;;;;5030874;28;20056;-64
2022/05/12 02:37:41;;;;;;;3.05;0.82;;;;;;;;;;5028366;28;20052;-64
2022/05/12 02:40:09;;;;;;;3.10;0.93;;;;;;;;;;5031145;28;20056;-64
2022/05/12 02:42:36;;;;;;;11.40;1.08;;;;;;;;;;5028979;28;20047;-63
2022/05/12 02:45:03;;;;;;;3.08;0.60;;;;;;;;;;5029585;28;20060;-64
2022/05/12 02:47:29;;;;;;;1.88;0.55;;;;;;;;;;5009543;28;20068;-65
2022/05/12 02:49:56;;;;;;;2.60;0.73;;;;;;;;;;5031981;28;20057;-64
2022/05/12 02:52:23;;;;;;;3.80;0.80;;;;;;;;;;5030409;28;20131;-64
2022/05/12 02:54:50;;;;;;;2.25;0.70;;;;;;;;;;5030316;28;20056;-63
2022/05/12 02:57:17;;;;;;;1.73;0.60;;;;;;;;;;5031720;28;20085;-64
2022/05/12 02:59:43;;;;;;;2.60;0.70;;;;;;;;;;5030532;28;20044;-64
2022/05/12 03:02:10;;;;;;;3.83;0.63;;;;;;;;;;5031617;28;20565;-64
2022/05/12 03:04:37;;;;;;;6.38;0.85;;;;;;;;;;5030725;28;20056;-64
2022/05/12 03:07:04;;;;;;;2.22;0.68;;;;;;;;;;5031708;28;20025;-64
2022/05/12 03:09:31;;;;;;;4.53;1.20;;;;;;;;;;5011486;28;20041;-63
2022/05/12 03:11:58;;;;;;;4.45;1.00;;;;;;;;;;5030526;28;20453;-64
2022/05/12 03:14:24;;;;;;;4.28;0.93;;;;;;;;;;5031152;28;20037;-63
2022/05/12 03:16:53;;;;;;;2.60;0.80;;;;;;;;;;5030645;28;20053;-66
2022/05/12 03:19:21;;;;;;;3.13;1.00;;;;;;;;;;5030995;28;20041;-64
2022/05/12 03:21:48;;;;;;;6.47;0.95;;;;;;;;;;5031503;28;20037;-63
2022/05/12 03:24:18;;;;;;;7.70;0.73;;;;;;;;;;5031058;28;20025;-64
2022/05/12 03:26:46;;;;;;;3.00;0.60;;;;;;;;;;5030479;28;20136;-62
2022/05/12 03:29:13;;;;;;;3.95;0.68;;;;;;;;;;5031285;28;20033;-64
2022/05/12 03:31:40;;;;;;;3.05;0.80;;;;;;;;;;5011157;28;20512;-65
2022/05/12 03:34:07;;;;;;;3.47;0.80;;;;;;;;;;5031112;28;20044;-65
2022/05/12 03:36:39;;;;;;;3.95;0.73;;;;;;;;;;5017061;28;20056;-69
2022/05/12 03:39:07;;;;;;;7.93;0.80;;;;;;;;;;5029713;28;20045;-69
2022/05/12 03:41:34;;;;;;;3.63;0.90;;;;;;;;;;5028474;28;20175;-69
2022/05/12 03:46:54;;;;;;;3.20;0.90;;;;;;;;;;5028228;28;20056;-68
2022/05/12 03:49:21;;;;;;;4.30;0.80;;;;;;;;;;5031962;28;20098;-68
2022/05/12 03:51:47;;;;;;;7.40;1.30;;;;;;;;;;5053788;28;20037;-67
2022/05/12 03:54:14;;;;;;;10.52;1.30;;;;;;;;;;5050355;28;20044;-69
2022/05/12 03:56:42;;;;;;;5.38;0.98;;;;;;;;;;5050697;28;20041;-68
2022/05/12 03:59:09;;;;;;;3.22;0.82;;;;;;;;;;5051256;28;20159;-68
2022/05/12 04:01:36;;;;;;;4.65;1.08;;;;;;;;;;5049816;28;20048;-68
2022/05/12 04:04:03;;;;;;;4.35;1.00;;;;;;;;;;5049671;28;20060;-68
2022/05/12 04:06:30;;;;;;;4.50;0.65;;;;;;;;;;5050734;28;20041;-70
2022/05/12 04:08:57;;;;;;;3.25;0.98;;;;;;;;;;5048808;28;20049;-67
2022/05/12 04:11:24;;;;;;;3.60;1.08;;;;;;;;;;5049226;28;20053;-67
2022/05/12 04:13:51;;;;;;;5.88;1.05;;;;;;;;;;5048310;28;20041;-69
2022/05/12 04:16:19;;;;;;;3.47;0.80;;;;;;;;;;5046537;28;20029;-68
2022/05/12 04:18:46;;;;;;;5.35;1.00;;;;;;;;;;5049014;28;20067;-68
2022/05/12 04:21:13;;;;;;;5.97;0.90;;;;;;;;;;5050313;28;20124;-68
2022/05/12 04:23:39;;;;;;;4.22;1.08;;;;;;;;;;5048832;28;20041;-69
2022/05/12 04:26:06;;;;;;;2.83;0.80;;;;;;;;;;5049636;28;20164;-68
2022/05/12 04:28:33;;;;;;;2.75;0.80;;;;;;;;;;5049546;28;20090;-68
2022/05/12 04:31:00;;;;;;;10.10;1.20;;;;;;;;;;5034088;28;20036;-68
2022/05/12 04:36:13;;;;;;;10.93;1.00;;;;;;;;;;5049251;28;20823;-67
2022/05/12 04:38:40;;;;;;;5.43;1.00;;;;;;;;;;5021734;28;20051;-67
2022/05/12 04:41:08;;;;;;;4.15;1.20;;;;;;;;;;5031206;28;20042;-67
2022/05/12 04:43:35;;;;;;;7.07;1.08;;;;;;;;;;5034517;28;20531;-65
2022/05/12 04:46:02;;;;;;;4.18;1.00;;;;;;;;;;5048991;28;20087;-65
2022/05/12 04:48:31;;;;;;;4.15;1.02;;;;;;;;;;5047695;28;20055;-65
2022/05/12 04:50:59;;;;;;;8.30;1.30;;;;;;;;;;5049097;28;20503;-67
2022/05/12 04:53:26;;;;;;;5.30;1.20;;;;;;;;;;5049021;28;20042;-67
2022/05/12 04:55:52;;;;;;;7.28;1.08;;;;;;;;;;5032042;28;20085;-67
2022/05/12 04:58:19;;;;;;;7.20;1.10;;;;;;;;;;5050947;28;20417;-67
2022/05/12 05:00:46;;;;;;;3.92;0.93;;;;;;;;;;5033771;28;20043;-66
2022/05/12 05:03:13;;;;;;;13.65;1.17;;;;;;;;;;5046780;28;20044;-66
2022/05/12 05:05:40;;;;;;;4.35;0.93;;;;;;;;;;5046372;28;20203;-66
2022/05/12 05:08:07;;;;;;;5.40;1.15;;;;;;;;;;5048087;28;20040;-67
2022/05/12 05:10:34;;;;;;;4.82;1.00;;;;;;;;;;5046714;28;20096;-67
2022/05/12 05:13:01;;;;;;;8.20;1.50;;;;;;;;;;5038086;28;20594;-67
2022/05/12 05:15:28;;;;;;;4.72;1.30;;;;;;;;;;5046714;28;20090;-67
2022/05/12 05:17:54;;;;;;;4.47;1.08;;;;;;;;;;5048593;28;20037;-67
2022/05/12 05:20:23;;;;;;;6.93;1.30;;;;;;;;;;5049954;28;20033;-67
2022/05/12 05:22:50;;;;;;;7.28;1.30;;;;;;;;;;5045523;28;20607;-66
2022/05/12 05:25:17;;;;;;;6.25;1.58;;;;;;;;;;5048618;28;20397;-66
2022/05/12 05:27:44;;;;;;;4.15;1.25;;;;;;;;;;5048059;28;20048;-67
2022/05/12 05:30:12;;;;;;;3.75;1.27;;;;;;;;;;5047759;28;20036;-66
2022/05/12 05:32:39;;;;;;;6.60;1.20;;;;;;;;;;5046277;28;20128;-68
2022/05/12 05:35:09;;;;;;;3.78;1.05;;;;;;;;;;5050849;28;20040;-68
2022/05/12 05:37:36;;;;;;;5.80;1.15;;;;;;;;;;5050327;28;20049;-68
2022/05/12 05:40:05;;;;;;;6.63;1.10;;;;;;;;;;5056580;28;20083;-68
2022/05/12 05:42:32;;;;;;;9.15;1.23;;;;;;;;;;5055287;28;20043;-67
2022/05/12 05:44:59;;;;;;;8.02;1.13;;;;;;;;;;5054064;28;20512;-66
2022/05/12 05:47:25;;;;;;;4.28;0.85;;;;;;;;;;5053922;28;20102;-66
2022/05/12 05:49:52;;;;;;;8.00;1.30;;;;;;;;;;5052935;28;20094;-67
2022/05/12 05:55:04;;;;;;;7.05;1.23;;;;;;;;;;5055552;28;20135;-69
2022/05/12 05:57:31;;;;;;;10.23;1.20;;;;;;;;;;5056849;28;20056;-69
2022/05/12 05:59:58;;;;;;;11.50;1.13;;;;;;;;;;5055939;28;20036;-68
2022/05/12 06:02:25;;;;;;;7.03;1.23;;;;;;;;;;5054769;28;21658;-68
2022/05/12 06:04:52;;;;;;;4.60;1.25;;;;;;;;;;5054788;28;20032;-68
2022/05/12 06:07:19;;;;;;;8.82;1.50;;;;;;;;;;5054038;28;20036;-68
2022/05/12 06:09:45;;;;;;;6.05;1.40;;;;;;;;;;5055007;28;20037;-67
2022/05/12 06:12:12;;;;;;;2.67;0.88;;;;;;;;;;5054928;28;20056;-68
2022/05/12 06:14:39;;;;;;;5.93;1.20;;;;;;;;;;5053583;28;20032;-68
2022/05/12 06:17:06;;;;;;;6.22;1.10;;;;;;;;;;5055508;28;20041;-68
2022/05/12 06:19:33;;;;;;;5.10;1.20;;;;;;;;;;5054017;28;20056;-67
2022/05/12 06:22:00;;;;;;;8.75;1.40;;;;;;;;;;5052383;28;20048;-68
2022/05/12 06:24:27;;;;;;;4.68;1.40;;;;;;;;;;5053481;28;20032;-67
2022/05/12 06:26:53;;;;;;;4.47;1.00;;;;;;;;;;5053100;28;20059;-67
2022/05/12 06:29:20;;;;;;;7.90;1.02;;;;;;;;;;5053819;28;20490;-67
2022/05/12 06:31:47;;;;;;;6.05;1.30;;;;;;;;;;5051759;28;20107;-67
2022/05/12 06:34:15;;;;;;;3.33;0.70;;;;;;;;;;5053537;28;20064;-67
2022/05/12 06:36:41;;;;;;;6.15;1.20;;;;;;;;;;5053117;28;22150;-66
2022/05/12 06:39:08;;;;;;;7.90;1.48;;;;;;;;;;5054206;28;20041;-68
2022/05/12 06:41:35;;;;;;;9.35;1.58;;;;;;;;;;5053459;28;20067;-69
2022/05/12 06:44:02;;;;;;;5.13;1.58;;;;;;;;;;5053203;28;20094;-68
2022/05/12 06:46:29;;;;;;;6.70;1.42;;;;;;;;;;5053619;28;20520;-69
2022/05/12 06:48:56;;;;;;;3.95;1.13;;;;;;;;;;5050995;28;20127;-68
2022/05/12 06:51:23;;;;;;;5.88;1.50;;;;;;;;;;5049983;28;20441;-68
2022/05/12 06:53:49;;;;;;;8.25;1.40;;;;;;;;;;5050742;28;20049;-67
2022/05/12 06:56:16;;;;;;;6.28;1.55;;;;;;;;;;5050553;28;20041;-67
2022/05/12 06:58:43;;;;;;;8.35;1.73;;;;;;;;;;5050724;28;21844;-66
2022/05/12 07:01:09;;;;;;;6.18;1.85;;;;;;;;;;5050991;28;20040;-66
2022/05/12 07:03:37;;;;;;;5.80;1.63;;;;;;;;;;5048878;28;20033;-66
2022/05/12 07:06:06;;;;;;;11.43;1.80;;;;;;;;;;5049263;28;20047;-67
2022/05/12 07:08:32;;;;;;;11.80;1.75;;;;;;;;;;5050402;28;20044;-67
2022/05/12 07:10:59;;;;;;;12.90;1.60;;;;;;;;;;5039951;28;20044;-67
2022/05/12 07:13:26;;;;;;;7.10;1.55;;;;;;;;;;5036109;28;20040;-67
2022/05/12 07:15:52;;;;;;;11.85;1.50;;;;;;;;;;5051206;28;20056;-66
2022/05/12 07:18:20;;;;;;;6.93;1.45;;;;;;;;;;5051193;28;20044;-66
2022/05/12 07:26:35;;;;;;;10.90;1.33;;;;;;;;;;5051881;28;20047;-65
2022/05/12 07:29:06;;;;;;;6.22;1.25;;;;;;;;;;5050414;28;20554;-65
2022/05/12 07:31:33;;;;;;;7.70;1.38;;;;;;;;;;5051521;28;20041;-65
2022/05/12 07:34:00;;;;;;;10.88;1.33;;;;;;;;;;5051021;28;20043;-65
2022/05/12 07:36:32;;;;;;;8.65;1.23;;;;;;;;;;5049819;28;20421;-66
2022/05/12 07:39:00;;;;;;;4.25;1.10;;;;;;;;;;5051423;28;20028;-66
2022/05/12 07:41:27;;;;;;;3.60;1.00;;;;;;;;;;5050104;28;20090;-65
2022/05/12 07:43:54;;;;;;;3.10;0.85;;;;;;;;;;5053067;28;20963;-66
2022/05/12 07:46:23;;;;;;;8.40;1.08;;;;;;;;;;5050054;28;21820;-66
2022/05/12 07:48:50;;;;;;;3.10;0.98;;;;;;;;;;5039765;28;20123;-66
2022/05/12 07:51:17;;;;;;;2.70;0.98;;;;;;;;;;5051594;28;20181;-66
2022/05/12 07:53:47;;;;;;;3.30;1.00;;;;;;;;;;5048463;28;20083;-67
2022/05/12 07:56:15;;;;;;;4.43;0.95;;;;;;;;;;5048882;28;20476;-67
2022/05/12 07:58:42;;;;;;;6.32;0.82;;;;;;;;;;5048725;28;20047;-66
2022/05/12 08:01:11;;;;;;;2.80;0.85;;;;;;;;;;5047913;28;20097;-66
2022/05/12 08:03:39;;;;;;;2.30;0.80;;;;;;;;;;5048393;28;20040;-66
2022/05/12 08:06:07;;;;;;;3.90;1.02;;;;;;;;;;5050289;28;20111;-66
2022/05/12 08:08:34;;;;;;;2.72;0.90;;;;;;;;;;5049498;28;20147;-66
2022/05/12 08:11:01;;;;;;;3.05;0.80;;;;;;;;;;5050283;28;20125;-65
2022/05/12 08:13:28;;;;;;;6.68;0.90;;;;;;;;;;5048265;28;20037;-66
2022/05/12 08:15:55;;;;;;;5.13;1.08;;;;;;;;;;5049987;28;20171;-66
2022/05/12 08:18:23;;;;;;;5.60;1.25;;;;;;;;;;5048108;28;20102;-66
2022/05/12 08:20:50;;;;;;;2.10;0.80;;;;;;;;;;5048828;28;20071;-66
2022/05/12 08:23:17;;;;;;;2.42;0.80;;;;;;;;;;5047976;28;20041;-67
2022/05/12 08:25:44;;;;;;;3.30;0.90;;;;;;;;;;5037136;28;20769;-67
2022/05/12 08:28:15;;;;;;;2.22;0.80;;;;;;;;;;5051063;28;20040;-66
2022/05/12 08:30:45;;;;;;;2.40;0.80;;;;;;;;;;5048030;28;20055;-67
2022/05/12 08:33:12;;;;;;;4.18;0.80;;;;;;;;;;5048478;28;20063;-67
2022/05/12 08:35:40;;;;;;;2.50;0.70;;;;;;;;;;5046738;28;20067;-67
2022/05/12 08:38:07;;;;;;;5.88;1.00;;;;;;;;;;5048284;28;20053;-67
2022/05/12 08:40:52;;;;;;;2.53;0.57;;;;;;;;;;5047853;28;20393;-67
2022/05/12 08:43:23;;;;;;;2.72;0.90;;;;;;;;;;5048724;28;20461;-67
2022/05/12 08:45:53;;;;;;;1.70;0.63;;;;;;;;;;5047599;28;20721;-66
2022/05/12 08:48:20;;;;;;;5.38;0.80;;;;;;;;;;5048566;28;20489;-67
2022/05/12 08:50:51;;;;;;;3.10;0.90;;;;;;;;;;5048222;28;20071;-67
2022/05/12 08:53:20;;;;;;;3.95;0.70;;;;;;;;;;5030594;28;20036;-66
2022/05/12 08:55:48;;;;;;;2.42;0.77;;;;;;;;;;5046628;28;20557;-66
2022/05/12 08:58:33;;;;;;;3.17;0.95;;;;;;;;;;5047761;28;20044;-67
2022/05/12 09:01:07;;;;;;;3.13;0.70;;;;;;;;;;5048316;28;21833;-68
2022/05/12 09:03:34;;;;;;;4.82;0.90;;;;;;;;;;5044754;28;20063;-66
2022/05/12 09:06:27;;;;;;;4.68;0.88;;;;;;;;;;5047583;28;20044;-66
2022/05/12 09:09:03;;;;;;;2.20;0.70;;;;;;;;;;5027705;28;20445;-66
2022/05/12 09:11:29;;;;;;;2.58;0.75;;;;;;;;;;5047710;28;20113;-66
2022/05/12 09:13:59;;;;;;;4.63;1.10;;;;;;;;;;5047172;28;20523;-66
2022/05/12 09:16:29;;;;;;;3.40;0.80;;;;;;;;;;5047006;28;20024;-66
2022/05/12 09:18:57;;;;;;;3.83;0.82;;;;;;;;;;5046811;28;20037;-66
2022/05/12 09:21:29;;;;;;;5.85;0.80;;;;;;;;;;5047191;28;20043;-66
2022/05/12 09:23:59;;;;;;;4.53;1.00;;;;;;;;;;5047030;28;20044;-66
2022/05/12 09:26:34;;;;;;;6.55;1.33;;;;;;;;;;5045631;28;20485;-66
2022/05/12 09:29:14;;;;;;;6.32;1.08;;;;;;;;;;5047614;28;20041;-65
2022/05/12 09:31:46;;;;;;;7.78;1.40;;;;;;;;;;5046911;28;20033;-64
2022/05/12 09:34:25;;;;;;;8.93;1.33;;;;;;;;;;5049056;28;20064;-64
2022/05/12 09:36:52;;;;;;;4.93;0.90;;;;;;;;;;5047043;28;20481;-65
2022/05/12 09:39:38;;;;;;;5.28;1.20;;;;;;;;;;5047316;28;20044;-65
2022/05/12 09:42:07;;;;;;;7.35;1.42;;;;;;;;;;5046686;28;20054;-64
2022/05/12 09:44:35;;;;;;;11.85;1.35;;;;;;;;;;5046077;28;20057;-65
2022/05/12 09:47:06;;;;;;;4.78;1.20;;;;;;;;;;5049256;28;20052;-65
2022/05/12 09:49:38;;;;;;;9.15;1.10;;;;;;;;;;5046222;28;20193;-65
2022/05/12 09:52:24;;;;;;;3.22;0.90;;;;;;;;;;5049230;28;20036;-65
2022/05/12 09:55:09;;;;;;;7.50;0.73;;;;;;;;;;5054493;28;20040;-65
2022/05/12 09:57:36;;;;;;;4.50;1.08;;;;;;;;;;5050600;28;20468;-66
2022/05/12 10:00:07;;;;;;;3.10;1.05;;;;;;;;;;5048432;28;20463;-65
2022/05/12 10:08:11;;;;;;;8.60;1.20;;;;;;;;;;5047421;28;20055;-65
2022/05/12 10:10:38;;;;;;;2.85;0.95;;;;;;;;;;5031394;28;20041;-65
2022/05/12 10:13:16;;;;;;;8.85;1.10;;;;;;;;;;5047718;28;20033;-65
2022/05/12 10:15:43;;;;;;;4.57;1.10;;;;;;;;;;5047996;28;20041;-65
2022/05/12 10:18:16;;;;;;;4.75;0.80;;;;;;;;;;5048134;28;20033;-65
2022/05/12 10:20:44;;;;;;;5.65;1.00;;;;;;;;;;5050442;28;20530;-65
2022/05/12 10:23:11;;;;;;;3.25;0.88;;;;;;;;;;5050945;28;20041;-65
2022/05/12 10:25:57;;;;;;;5.57;1.10;;;;;;;;;;5049397;28;20041;-65
2022/05/12 10:28:35;;;;;;;3.70;1.00;;;;;;;;;;5051349;28;20505;-65
2022/05/12 10:31:21;;;;;;;3.58;0.82;;;;;;;;;;5050752;28;20044;-63
2022/05/12 10:34:00;;;;;;;6.55;1.00;;;;;;;;;;5051838;28;20056;-65
2022/05/12 10:36:44;;;;;;;2.40;0.98;;;;;;;;;;5052066;28;20089;-64
2022/05/12 10:39:33;;;;;;;6.30;1.00;;;;;;;;;;5052190;28;20029;-65
2022/05/12 10:42:14;;;;;;;2.63;1.00;;;;;;;;;;5036301;28;20127;-65
2022/05/12 10:44:56;;;;;;;4.45;1.10;;;;;;;;;;5048207;28;20513;-65
2022/05/12 10:47:32;;;;;;;6.55;1.02;;;;;;;;;;5048955;28;20056;-65
2022/05/12 10:50:21;;;;;;;5.07;1.17;;;;;;;;;;5050636;28;20114;-65
2022/05/12 10:52:53;;;;;;;4.20;0.93;;;;;;;;;;5047839;28;20613;-65
2022/05/12 10:55:26;;;;;;;4.65;1.27;;;;;;;;;;5051311;28;20025;-65
2022/05/12 10:57:52;;;;;;;7.72;1.17;;;;;;;;;;5049930;28;20124;-65
2022/05/12 11:00:28;;;;;;;4.10;1.17;;;;;;;;;;5049492;28;20055;-65
2022/05/12 11:02:57;;;;;;;5.50;1.02;;;;;;;;;;5048691;28;20048;-64
2022/05/12 11:05:28;;;;;;;6.63;1.15;;;;;;;;;;5031943;28;20040;-64
2022/05/12 11:08:07;;;;;;;4.80;1.30;;;;;;;;;;5050547;28;20637;-65
2022/05/12 11:10:44;;;;;;;3.38;1.10;;;;;;;;;;5048467;28;20056;-64
2022/05/12 11:13:20;;;;;;;4.43;1.23;;;;;;;;;;5051691;28;20045;-64
2022/05/12 11:15:50;;;;;;;6.18;1.08;;;;;;;;;;5048510;28;20116;-64
2022/05/12 11:18:43;;;;;;;6.65;1.30;;;;;;;;;;5050601;28;20044;-64
2022/05/12 11:21:15;;;;;;;6.88;1.55;;;;;;;;;;5045893;28;20045;-65
2022/05/12 11:23:41;;;;;;;4.95;1.15;;;;;;;;;;5048837;28;20045;-65
2022/05/12 11:26:17;;;;;;;7.10;1.40;;;;;;;;;;5050713;28;20601;-65
2022/05/12 11:31:58;;;;;;;11.10;1.58;;;;;;;;;;5050400;28;20378;-64
2022/05/12 11:34:27;;;;;;;7.28;1.52;;;;;;;;;;5049010;28;20048;-64
2022/05/12 11:36:56;;;;;;;3.60;0.95;;;;;;;;;;5049503;28;20044;-65
2022/05/12 11:39:22;;;;;;;2.85;0.93;;;;;;;;;;5050060;28;20151;-65
2022/05/12 11:41:49;;;;;;;4.15;1.13;;;;;;;;;;5050565;28;20033;-65
2022/05/12 11:44:26;;;;;;;5.22;1.75;;;;;;;;;;5049455;28;20493;-66
2022/05/12 11:47:01;;;;;;;6.95;1.90;;;;;;;;;;5050695;28;20040;-64
2022/05/12 11:49:46;;;;;;;6.45;1.35;;;;;;;;;;5048964;28;20041;-65
2022/05/12 11:52:27;;;;;;;8.70;1.38;;;;;;;;;;5050444;28;20058;-65
2022/05/12 11:54:57;;;;;;;6.65;1.05;;;;;;;;;;5050617;28;20049;-65
2022/05/12 11:57:43;;;;;;;5.05;1.40;;;;;;;;;;5049984;28;20041;-64
2022/05/12 12:00:12;;;;;;;3.60;1.20;;;;;;;;;;5050544;28;20632;-64
2022/05/12 12:02:43;;;;;;;7.40;1.55;;;;;;;;;;5048723;28;20071;-63
2022/05/12 12:05:33;;;;;;;7.47;1.85;;;;;;;;;;5048125;28;20037;-64
2022/05/12 12:08:10;;;;;;;10.10;1.50;;;;;;;;;;5013679;28;20052;-62
2022/05/12 12:10:38;;;;;;;5.20;1.80;;;;;;;;;;5048354;28;21013;-65
2022/05/12 12:13:07;;;;;;;5.10;1.50;;;;;;;;;;5047429;28;20170;-65
2022/05/12 12:15:38;;;;;;;4.75;1.30;;;;;;;;;;5046105;28;20688;-63
2022/05/12 12:18:22;;;;;;;5.38;1.30;;;;;;;;;;5050290;28;20045;-63
2022/05/12 12:20:56;;;;;;;3.45;1.10;;;;;;;;;;5050224;28;20045;-63
2022/05/12 12:23:28;;;;;;;4.78;1.80;;;;;;;;;;5049436;28;20562;-63
2022/05/12 12:26:01;;;;;;;4.25;1.33;;;;;;;;;;5052235;28;20051;-64
2022/05/12 12:28:30;;;;;;;5.67;1.40;;;;;;;;;;5049796;28;20160;-63
2022/05/12 12:30:59;;;;;;;5.15;1.65;;;;;;;;;;5050209;28;20300;-63
2022/05/12 12:33:26;;;;;;;5.50;1.90;;;;;;;;;;5049238;28;20091;-63
2022/05/12 12:36:11;;;;;;;8.13;1.85;;;;;;;;;;5050352;28;20033;-63
2022/05/12 12:39:04;;;;;;;12.20;1.92;;;;;;;;;;5049314;28;20040;-64
2022/05/12 12:41:31;;;;;;;10.95;2.03;;;;;;;;;;5050220;28;20037;-64
2022/05/12 12:43:57;;;;;;;6.28;2.00;;;;;;;;;;5050790;28;20048;-62
2022/05/12 12:46:30;;;;;;;5.00;1.70;;;;;;;;;;5047898;28;20049;-63
2022/05/12 12:48:57;;;;;;;8.87;1.83;;;;;;;;;;5048704;28;20468;-63
2022/05/12 12:51:31;;;;;;;11.88;2.10;;;;;;;;;;5050158;28;21570;-64
2022/05/12 12:56:43;;;;;;;10.32;1.52;;;;;;;;;;5049201;28;20095;-64
2022/05/12 12:59:22;;;;;;;7.97;1.60;;;;;;;;;;5049908;28;20041;-64
2022/05/12 13:02:00;;;;;;;7.22;1.60;;;;;;;;;;5048091;28;20044;-63
2022/05/12 13:04:28;;;;;;;10.45;2.55;;;;;;;;;;5049805;28;20435;-66
2022/05/12 13:06:57;;;;;;;10.90;1.75;;;;;;;;;;5048642;28;20067;-64
2022/05/12 13:09:28;;;;;;;11.82;1.40;;;;;;;;;;5049541;28;20045;-65
2022/05/12 13:12:16;;;;;;;6.80;1.50;;;;;;;;;;5049834;28;20028;-65
2022/05/12 13:14:44;;;;;;;7.70;1.50;;;;;;;;;;5048968;28;20265;-65
2022/05/12 13:17:18;;;;;;;6.80;1.58;;;;;;;;;;5050086;28;20477;-65
2022/05/12 13:19:45;;;;;;;6.93;1.23;;;;;;;;;;5049091;28;20460;-65
2022/05/12 13:22:20;;;;;;;4.68;1.58;;;;;;;;;;5049676;28;20051;-64
2022/05/12 13:24:47;;;;;;;7.40;1.50;;;;;;;;;;5048815;28;20068;-65
2022/05/12 13:27:19;;;;;;;9.40;1.65;;;;;;;;;;5049359;28;20044;-64
2022/05/12 13:29:46;;;;;;;6.30;1.70;;;;;;;;;;5048706;28;20041;-64
2022/05/12 13:32:31;;;;;;;8.30;2.08;;;;;;;;;;5048089;28;20173;-64
2022/05/12 13:35:04;;;;;;;10.63;1.52;;;;;;;;;;5047853;28;20090;-64
2022/05/12 13:37:31;;;;;;;10.43;1.70;;;;;;;;;;5047640;28;20037;-63
2022/05/12 13:40:00;;;;;;;3.40;1.30;;;;;;;;;;5047435;28;20068;-65
2022/05/12 13:42:35;;;;;;;3.75;1.30;;;;;;;;;;5049257;28;20405;-63
2022/05/12 13:45:20;;;;;;;8.38;1.20;;;;;;;;;;5049654;28;20064;-64
2022/05/12 13:47:49;;;;;;;3.97;1.45;;;;;;;;;;5050378;28;20049;-65
2022/05/12 13:50:15;;;;;;;6.25;1.40;;;;;;;;;;5048517;28;20119;-65
2022/05/12 13:52:50;;;;;;;6.57;1.55;;;;;;;;;;5046133;28;20047;-65
2022/05/12 13:55:28;;;;;;;6.88;1.60;;;;;;;;;;5050495;28;20036;-65
2022/05/12 13:58:04;;;;;;;11.18;1.67;;;;;;;;;;5050329;28;20052;-65
2022/05/12 14:00:30;;;;;;;11.27;1.52;;;;;;;;;;5053176;28;20127;-65
2022/05/12 14:03:15;;;;;;;15.60;1.73;;;;;;;;;;5053411;28;20135;-64
2022/05/12 14:05:43;;;;;;;5.97;1.55;;;;;;;;;;5052338;28;20070;-65
2022/05/12 14:08:10;;;;;;;4.10;1.35;;;;;;;;;;5055320;28;20048;-65
2022/05/12 14:10:43;;;;;;;8.43;2.00;;;;;;;;;;5053295;28;20044;-65
2022/05/12 14:21:37;;;;;;;3.78;1.17;;;;;;;;;;5052886;28;20062;-65
2022/05/12 14:24:04;;;;;;;5.25;1.45;;;;;;;;;;5053158;28;20036;-65
2022/05/12 14:26:30;;;;;;;6.00;1.10;;;;;;;;;;5051527;28;20033;-64
2022/05/12 14:28:57;;;;;;;4.05;1.30;;;;;;;;;;5043036;28;20051;-64
2022/05/12 14:31:24;;;;;;;5.80;1.10;;;;;;;;;;5051207;28;20033;-64
2022/05/12 14:33:51;;;;;;;7.30;1.38;;;;;;;;;;5052789;28;20088;-65
2022/05/12 14:36:18;;;;;;;6.13;1.50;;;;;;;;;;5053052;28;20029;-65
2022/05/12 14:38:47;;;;;;;4.90;1.10;;;;;;;;;;5053491;28;20174;-65
2022/05/12 14:41:14;;;;;;;4.05;0.98;;;;;;;;;;5051114;28;20132;-65
2022/05/12 14:43:41;;;;;;;7.28;1.20;;;;;;;;;;5051956;28;20731;-65
2022/05/12 14:46:08;;;;;;;11.48;1.45;;;;;;;;;;5052364;28;20036;-64
2022/05/12 14:48:35;;;;;;;6.13;1.50;;;;;;;;;;5051921;28;20079;-65
2022/05/12 14:51:02;;;;;;;4.97;1.20;;;;;;;;;;5051935;28;20134;-64
2022/05/12 14:53:28;;;;;;;8.30;1.50;;;;;;;;;;5051200;28;20087;-65
2022/05/12 14:55:55;;;;;;;3.50;1.20;;;;;;;;;;5051159;28;20064;-65
2022/05/12 14:58:22;;;;;;;4.57;1.33;;;;;;;;;;5050882;28;20041;-65
2022/05/12 15:00:48;;;;;;;7.53;1.20;;;;;;;;;;5050032;28;20092;-65
2022/05/12 15:03:16;;;;;;;8.02;1.40;;;;;;;;;;5051524;28;20040;-64
2022/05/12 15:05:43;;;;;;;7.07;1.67;;;;;;;;;;5052203;28;20106;-65
2022/05/12 15:08:09;;;;;;;7.75;1.38;;;;;;;;;;5049835;28;20052;-65
2022/05/12 15:10:36;;;;;;;5.70;1.30;;;;;;;;;;5048073;28;20047;-65
2022/05/12 15:13:03;;;;;;;5.80;1.38;;;;;;;;;;5051705;28;20186;-65
2022/05/12 15:15:32;;;;;;;13.40;1.33;;;;;;;;;;5050679;28;20103;-66
2022/05/12 15:17:58;;;;;;;7.35;1.30;;;;;;;;;;5050790;28;20362;-66
2022/05/12 15:20:26;;;;;;;6.80;1.60;;;;;;;;;;5050296;28;20033;-66
2022/05/12 15:22:53;;;;;;;6.22;1.30;;;;;;;;;;5051055;28;20045;-66
2022/05/12 15:25:20;;;;;;;6.22;1.10;;;;;;;;;;5049418;28;20048;-66
2022/05/12 15:27:50;;;;;;;4.78;1.30;;;;;;;;;;5050794;28;20486;-66
2022/05/12 15:30:18;;;;;;;8.63;1.52;;;;;;;;;;5051972;28;20055;-66
2022/05/12 15:32:45;;;;;;;5.47;1.17;;;;;;;;;;5050011;28;20043;-65